createdAt,value
2018-09-08T00:00:05.861Z,78.38
2018-09-08T00:02:34.572Z,78.62
2018-09-08T00:05:03.787Z,78.84
2018-09-08T00:07:38.877Z,79.25
2018-09-08T00:10:09.765Z,79.28
2018-09-08T00:12:38.473Z,78.58
2018-09-08T00:15:12.408Z,79.24
2018-09-08T00:17:46.169Z,79.30
2018-09-08T00:20:21.304Z,79.59
2018-09-08T00:22:55.326Z,79.66
2018-09-08T00:25:30.319Z,79.68
2018-09-08T00:28:04.698Z,80.57
2018-09-08T00:30:33.647Z,80.32
2018-09-08T00:33:02.400Z,80.56
2018-09-08T00:35:31.266Z,80.74
2018-09-08T00:37:59.986Z,81.53
2018-09-08T00:40:29.416Z,81.38
2018-09-08T00:42:59.347Z,81.97
2018-09-08T00:45:28.029Z,81.74
2018-09-08T00:47:57.050Z,81.91
2018-09-08T00:50:26.008Z,82.18
2018-09-08T00:52:54.810Z,82.38
2018-09-08T00:55:23.835Z,82.30
2018-09-08T00:57:52.581Z,82.54
2018-09-08T01:00:21.293Z,82.49
2018-09-08T01:02:49.863Z,82.72
2018-09-08T01:05:18.522Z,82.52
2018-09-08T01:07:47.373Z,82.85
2018-09-08T01:10:16.963Z,82.59
2018-09-08T01:12:45.745Z,83.13
2018-09-08T01:15:14.443Z,83.18
2018-09-08T01:17:43.163Z,83.46
2018-09-08T01:20:11.902Z,83.88
2018-09-08T01:22:40.786Z,83.88
2018-09-08T01:25:09.502Z,84.28
2018-09-08T01:27:38.213Z,83.98
2018-09-08T01:30:07.232Z,84.27
2018-09-08T01:32:35.923Z,84.17
2018-09-08T01:35:04.820Z,84.90
2018-09-08T01:37:33.577Z,85.15
2018-09-08T01:40:02.286Z,85.37
2018-09-08T01:42:31.001Z,84.91
2018-09-08T01:44:59.693Z,85.59
2018-09-08T01:47:28.638Z,86.05
2018-09-08T01:49:57.306Z,86.26
2018-09-08T01:52:27.068Z,85.76
2018-09-08T01:54:55.741Z,86.17
2018-09-08T01:57:24.453Z,86.26
2018-09-08T01:59:53.281Z,86.78
2018-09-08T02:02:22.834Z,86.67
2018-09-08T02:04:51.767Z,86.92
2018-09-08T02:07:20.525Z,87.61
2018-09-08T02:09:50.413Z,87.85
2018-09-08T02:12:19.211Z,88.19
2018-09-08T02:14:47.913Z,87.86
2018-09-08T02:17:17.732Z,87.63
2018-09-08T02:19:46.850Z,87.91
2018-09-08T02:22:15.531Z,88.17
2018-09-08T02:24:44.189Z,87.97
2018-09-08T02:27:12.885Z,88.05
2018-09-08T02:29:41.534Z,87.61
2018-09-08T02:32:11.190Z,88.25
2018-09-08T02:34:39.884Z,88.90
2018-09-08T02:37:08.608Z,88.67
2018-09-08T02:39:37.486Z,88.42
2018-09-08T02:42:06.534Z,89.17
2018-09-08T02:44:35.286Z,88.94
2018-09-08T02:47:03.973Z,89.33
2018-09-08T02:49:44.114Z,89.61
2018-09-08T02:52:11.418Z,89.99
2018-09-08T02:54:38.778Z,90.88
2018-09-08T02:57:06.095Z,90.75
2018-09-08T02:59:33.446Z,91.26
2018-09-08T03:02:00.795Z,90.79
2018-09-08T03:04:28.216Z,90.66
2018-09-08T03:06:55.523Z,90.47
2018-09-08T03:09:22.842Z,90.34
2018-09-08T03:11:50.178Z,89.85
2018-09-08T03:14:17.655Z,90.08
2018-09-08T03:16:44.969Z,90.18
2018-09-08T03:19:12.441Z,89.79
2018-09-08T03:21:40.822Z,90.19
2018-09-08T03:24:09.127Z,89.04
2018-09-08T03:26:37.697Z,89.87
2018-09-08T03:29:05.003Z,89.77
2018-09-08T03:31:33.270Z,90.13
2018-09-08T03:34:00.638Z,90.65
2018-09-08T03:36:28.492Z,90.97
2018-09-08T03:38:55.818Z,91.45
2018-09-08T03:41:23.285Z,91.64
2018-09-08T03:43:50.957Z,92.10
2018-09-08T03:46:18.567Z,92.69
2018-09-08T03:48:46.859Z,94.11
2018-09-08T03:51:14.190Z,95.39
2018-09-08T03:53:41.524Z,96.30
2018-09-08T03:56:09.472Z,98.07
2018-09-08T03:58:36.837Z,99.87
2018-09-08T04:01:04.133Z,100.00
2018-09-08T04:03:32.713Z,100.00
2018-09-08T04:06:01.405Z,100.00
2018-09-08T04:08:30.093Z,100.00
2018-09-08T04:10:58.762Z,100.00
2018-09-08T04:13:27.568Z,100.00
2018-09-08T04:15:56.168Z,100.00
2018-09-08T04:18:24.824Z,100.00
2018-09-08T04:20:53.530Z,100.00
2018-09-08T04:23:22.222Z,100.00
2018-09-08T04:25:51.021Z,100.00
2018-09-08T04:28:19.715Z,100.00
2018-09-08T04:30:48.344Z,100.00
2018-09-08T04:33:17.090Z,100.00
2018-09-08T04:35:45.779Z,100.00
2018-09-08T04:38:14.475Z,100.00
2018-09-08T04:40:44.264Z,100.00
2018-09-08T04:43:15.115Z,100.00
2018-09-08T04:45:44.139Z,100.00
2018-09-08T04:48:12.910Z,100.00
2018-09-08T04:50:42.117Z,100.00
2018-09-08T04:53:10.757Z,100.00
2018-09-08T04:55:39.705Z,100.00
2018-09-08T04:58:08.517Z,100.00
2018-09-08T05:00:37.066Z,100.00
2018-09-08T05:03:05.801Z,100.00
2018-09-08T05:05:34.676Z,100.00
2018-09-08T05:08:04.284Z,100.00
2018-09-08T05:10:33.662Z,100.00
2018-09-08T05:13:02.369Z,100.00
2018-09-08T05:15:31.678Z,100.00
2018-09-08T05:18:00.434Z,100.00
2018-09-08T05:20:29.169Z,100.00
2018-09-08T05:22:57.789Z,100.00
2018-09-08T05:25:26.513Z,100.00
2018-09-08T05:27:55.291Z,100.00
2018-09-08T05:30:24.913Z,100.00
2018-09-08T05:32:53.633Z,100.00
2018-09-08T05:35:22.260Z,100.00
2018-09-08T05:37:51.099Z,100.00
2018-09-08T05:40:19.955Z,100.00
2018-09-08T05:42:48.770Z,100.00
2018-09-08T05:45:17.442Z,100.00
2018-09-08T05:47:46.176Z,100.00
2018-09-08T05:50:14.889Z,100.00
2018-09-08T05:52:43.635Z,100.00
2018-09-08T05:55:12.400Z,99.47
2018-09-08T05:57:41.110Z,98.38
2018-09-08T06:00:10.922Z,97.25
2018-09-08T06:02:39.673Z,96.99
2018-09-08T06:05:08.370Z,96.83
2018-09-08T06:07:37.492Z,96.03
2018-09-08T06:10:06.341Z,95.49
2018-09-08T06:12:36.026Z,95.00
2018-09-08T06:15:04.806Z,94.96
2018-09-08T06:17:33.529Z,93.58
2018-09-08T06:20:02.441Z,93.51
2018-09-08T06:22:31.152Z,92.63
2018-09-08T06:24:59.890Z,91.21
2018-09-08T06:27:28.581Z,91.38
2018-09-08T06:29:57.617Z,91.43
2018-09-08T06:32:26.431Z,90.11
2018-09-08T06:34:56.138Z,90.84
2018-09-08T06:37:25.617Z,89.51
2018-09-08T06:39:54.873Z,89.21
2018-09-08T06:42:24.641Z,87.01
2018-09-08T06:44:55.411Z,87.28
2018-09-08T06:47:24.170Z,87.68
2018-09-08T06:49:52.792Z,87.34
2018-09-08T06:52:21.819Z,86.71
2018-09-08T06:54:50.533Z,87.31
2018-09-08T06:57:19.159Z,86.87
2018-09-08T06:59:47.953Z,86.99
2018-09-08T07:02:16.698Z,87.29
2018-09-08T07:04:45.699Z,87.45
2018-09-08T07:07:14.506Z,87.28
2018-09-08T07:09:44.030Z,86.16
2018-09-08T07:12:12.837Z,85.46
2018-09-08T07:14:42.685Z,86.08
2018-09-08T07:17:12.362Z,86.36
2018-09-08T07:19:41.133Z,87.00
2018-09-08T07:22:09.823Z,88.74
2018-09-08T07:24:38.442Z,89.94
2018-09-08T07:27:07.198Z,90.94
2018-09-08T07:29:35.959Z,93.66
2018-09-08T07:32:04.742Z,94.64
2018-09-08T07:34:33.438Z,96.61
2018-09-08T07:37:03.105Z,98.45
2018-09-08T07:39:31.835Z,98.54
2018-09-08T07:42:01.155Z,99.11
2018-09-08T07:44:29.786Z,100.00
2018-09-08T07:46:58.483Z,99.45
2018-09-08T07:49:29.333Z,99.24
2018-09-08T07:51:58.028Z,99.85
2018-09-08T07:54:26.664Z,100.00
2018-09-08T07:56:55.683Z,99.59
2018-09-08T07:59:25.164Z,98.56
2018-09-08T08:01:54.633Z,99.26
2018-09-08T08:04:23.494Z,98.35
2018-09-08T08:06:52.195Z,97.41
2018-09-08T08:09:21.058Z,97.14
2018-09-08T08:11:49.713Z,96.96
2018-09-08T08:14:19.786Z,94.39
2018-09-08T08:16:48.591Z,95.97
2018-09-08T08:19:17.365Z,95.04
2018-09-08T08:21:46.192Z,95.41
2018-09-08T08:24:15.151Z,91.96
2018-09-08T08:26:43.888Z,92.03
2018-09-08T08:29:12.707Z,91.37
2018-09-08T08:31:41.505Z,92.57
2018-09-08T08:34:10.483Z,89.34
2018-09-08T08:36:39.210Z,90.04
2018-09-08T08:39:09.065Z,89.91
2018-09-08T08:41:37.798Z,91.85
2018-09-08T08:44:06.507Z,90.13
2018-09-08T08:46:35.351Z,87.45
2018-09-08T08:49:04.579Z,88.29
2018-09-08T08:52:43.221Z,88.99
2018-09-08T08:55:10.552Z,86.96
2018-09-08T08:57:40.368Z,86.41
2018-09-08T09:00:09.115Z,82.19
2018-09-08T09:02:37.821Z,81.98
2018-09-08T09:05:06.518Z,79.78
2018-09-08T09:07:35.467Z,79.15
2018-09-08T09:10:03.957Z,77.39
2018-09-08T09:12:32.844Z,77.56
2018-09-08T09:15:02.011Z,78.53
2018-09-08T09:17:30.449Z,79.12
2018-09-08T09:20:10.194Z,79.12
2018-09-08T09:22:49.886Z,77.01
2018-09-08T09:25:18.891Z,77.31
2018-09-08T09:27:48.727Z,75.62
2018-09-08T09:30:18.258Z,75.57
2018-09-08T09:32:47.016Z,74.67
2018-09-08T09:35:18.001Z,72.90
2018-09-08T09:37:46.775Z,72.20
2018-09-08T09:40:16.520Z,70.52
2018-09-08T09:42:45.349Z,70.61
2018-09-08T09:45:14.114Z,70.85
2018-09-08T09:47:43.709Z,72.19
2018-09-08T09:50:13.218Z,69.50
2018-09-08T09:52:42.303Z,67.27
2018-09-08T09:55:11.132Z,65.71
2018-09-08T09:57:40.095Z,67.75
2018-09-08T10:00:10.049Z,65.36
2018-09-08T10:02:40.855Z,63.78
2018-09-08T10:05:12.088Z,62.93
2018-09-08T10:07:41.076Z,61.39
2018-09-08T10:10:12.114Z,61.54
2018-09-08T10:12:41.065Z,61.91
2018-09-08T10:15:10.447Z,61.71
2018-09-08T10:17:40.049Z,63.49
2018-09-08T10:20:11.329Z,62.73
2018-09-08T10:22:40.962Z,59.54
2018-09-08T10:25:11.704Z,59.32
2018-09-08T10:27:40.857Z,59.14
2018-09-08T10:30:10.764Z,58.52
2018-09-08T10:32:39.755Z,57.73
2018-09-08T10:35:08.752Z,56.97
2018-09-08T10:37:37.762Z,58.15
2018-09-08T10:40:07.693Z,56.43
2018-09-08T10:42:36.502Z,56.07
2018-09-08T10:45:05.729Z,57.11
2018-09-08T10:47:34.618Z,57.46
2018-09-08T10:50:03.342Z,56.66
2018-09-08T10:52:33.473Z,55.79
2018-09-08T10:55:02.480Z,54.95
2018-09-08T10:57:33.010Z,53.55
2018-09-08T11:00:02.841Z,53.41
2018-09-08T11:02:32.245Z,52.74
2018-09-08T11:05:01.547Z,54.24
2018-09-08T11:07:30.765Z,55.08
2018-09-08T11:10:00.084Z,54.93
2018-09-08T11:12:29.157Z,52.96
2018-09-08T11:14:58.640Z,52.04
2018-09-08T11:17:27.306Z,51.17
2018-09-08T11:19:56.433Z,49.88
2018-09-08T11:22:25.338Z,50.95
2018-09-08T11:24:54.285Z,48.42
2018-09-08T11:27:23.016Z,46.71
2018-09-08T11:29:51.657Z,46.29
2018-09-08T11:32:20.728Z,46.77
2018-09-08T11:34:49.368Z,46.03
2018-09-08T11:37:18.647Z,47.85
2018-09-08T11:39:47.476Z,46.43
2018-09-08T11:42:16.177Z,47.82
2018-09-08T11:44:44.950Z,48.23
2018-09-08T11:47:13.727Z,50.05
2018-09-08T11:49:42.429Z,50.33
2018-09-08T11:52:11.169Z,51.02
2018-09-08T11:54:40.163Z,51.24
2018-09-08T11:57:08.957Z,52.45
2018-09-08T11:59:37.609Z,49.53
2018-09-08T12:02:06.548Z,48.16
2018-09-08T12:04:35.425Z,44.65
2018-09-08T12:07:04.134Z,44.86
2018-09-08T12:09:34.155Z,45.19
2018-09-08T12:12:02.882Z,46.27
2018-09-08T12:14:31.774Z,47.70
2018-09-08T12:17:00.645Z,46.91
2018-09-08T12:19:29.546Z,46.28
2018-09-08T12:21:59.604Z,45.16
2018-09-08T12:24:28.369Z,41.97
2018-09-08T12:26:57.353Z,43.09
2018-09-08T12:29:26.243Z,45.17
2018-09-08T12:31:55.143Z,46.67
2018-09-08T12:34:23.924Z,46.91
2018-09-08T12:36:53.606Z,45.12
2018-09-08T12:39:22.369Z,43.00
2018-09-08T12:41:52.387Z,41.47
2018-09-08T12:44:22.005Z,37.84
2018-09-08T12:46:50.642Z,37.21
2018-09-08T12:49:19.334Z,36.27
2018-09-08T12:51:47.976Z,35.35
2018-09-08T12:54:16.806Z,35.21
2018-09-08T12:56:47.250Z,36.52
2018-09-08T12:59:16.140Z,38.31
2018-09-08T13:01:44.747Z,38.95
2018-09-08T13:04:13.510Z,39.59
2018-09-08T13:06:42.332Z,40.02
2018-09-08T13:09:11.025Z,41.70
2018-09-08T13:11:39.769Z,40.61
2018-09-08T13:14:08.486Z,43.00
2018-09-08T13:16:37.173Z,41.56
2018-09-08T13:19:06.142Z,39.42
2018-09-08T13:21:35.875Z,37.04
2018-09-08T13:24:04.553Z,37.45
2018-09-08T13:26:36.346Z,35.84
2018-09-08T13:29:04.977Z,36.65
2018-09-08T13:31:33.657Z,35.82
2018-09-08T13:34:02.410Z,36.77
2018-09-08T13:36:31.211Z,36.68
2018-09-08T13:39:00.092Z,38.38
2018-09-08T13:41:28.771Z,38.13
2018-09-08T13:43:57.433Z,34.95
2018-09-08T13:46:26.198Z,33.30
2018-09-08T13:48:54.882Z,32.03
2018-09-08T13:51:24.550Z,31.89
2018-09-08T13:53:53.301Z,32.66
2018-09-08T13:56:21.989Z,33.97
2018-09-08T13:58:50.749Z,33.20
2018-09-08T14:01:19.447Z,33.70
2018-09-08T14:03:48.733Z,34.48
2018-09-08T14:06:17.366Z,33.79
2018-09-08T14:08:46.103Z,32.50
2018-09-08T14:11:15.111Z,32.35
2018-09-08T14:13:43.832Z,31.68
2018-09-08T14:16:13.546Z,33.53
2018-09-08T14:18:42.303Z,33.31
2018-09-08T14:21:11.064Z,34.19
2018-09-08T14:23:39.775Z,34.99
2018-09-08T14:26:08.382Z,32.90
2018-09-08T14:28:37.102Z,34.15
2018-09-08T14:31:05.857Z,34.32
2018-09-08T14:33:34.538Z,34.17
2018-09-08T14:36:04.386Z,33.16
2018-09-08T14:38:32.957Z,35.53
2018-09-08T14:41:02.156Z,37.02
2018-09-08T14:43:30.842Z,38.13
2018-09-08T14:45:59.676Z,38.85
2018-09-08T14:48:28.344Z,38.21
2018-09-08T14:50:56.999Z,36.63
2018-09-08T14:53:25.694Z,38.40
2018-09-08T14:55:54.371Z,39.34
2018-09-08T14:58:23.096Z,40.09
2018-09-08T15:00:51.784Z,40.88
2018-09-08T15:03:20.504Z,42.43
2018-09-08T15:05:49.284Z,42.73
2018-09-08T15:08:17.970Z,43.44
2018-09-08T15:10:46.651Z,44.24
2018-09-08T15:13:15.363Z,43.10
2018-09-08T15:15:44.366Z,42.16
2018-09-08T15:18:13.034Z,43.44
2018-09-08T15:20:41.700Z,42.86
2018-09-08T15:23:10.334Z,42.33
2018-09-08T15:25:39.010Z,43.54
2018-09-08T15:28:07.706Z,44.53
2018-09-08T15:30:36.482Z,44.21
2018-09-08T15:33:05.161Z,44.01
2018-09-08T15:35:33.765Z,43.13
2018-09-08T15:38:02.661Z,42.09
2018-09-08T15:40:31.405Z,42.67
2018-09-08T15:43:00.049Z,42.12
2018-09-08T15:45:28.746Z,42.15
2018-09-08T15:47:59.166Z,42.80
2018-09-08T15:50:27.982Z,44.34
2018-09-08T15:52:56.690Z,43.63
2018-09-08T15:55:25.566Z,44.04
2018-09-08T15:57:54.371Z,44.93
2018-09-08T16:00:23.159Z,44.25
2018-09-08T16:02:51.910Z,45.11
2018-09-08T16:05:20.603Z,45.64
2018-09-08T16:07:49.306Z,46.40
2018-09-08T16:10:17.962Z,46.65
2018-09-08T16:12:46.578Z,46.41
2018-09-08T16:15:15.248Z,46.35
2018-09-08T16:17:44.588Z,46.28
2018-09-08T16:20:14.357Z,46.51
2018-09-08T16:22:43.112Z,45.86
2018-09-08T16:25:11.864Z,46.61
2018-09-08T16:27:40.478Z,46.61
2018-09-08T16:30:10.056Z,46.86
2018-09-08T16:32:38.814Z,47.45
2018-09-08T16:35:07.744Z,48.09
2018-09-08T16:37:36.353Z,49.41
2018-09-08T16:40:05.751Z,50.03
2018-09-08T16:42:34.755Z,50.33
2018-09-08T16:45:04.517Z,50.51
2018-09-08T16:47:33.209Z,51.70
2018-09-08T16:50:03.026Z,51.83
2018-09-08T16:52:31.601Z,52.39
2018-09-08T16:55:00.676Z,52.54
2018-09-08T16:57:29.705Z,52.35
2018-09-08T16:59:59.397Z,53.80
2018-09-08T17:02:28.287Z,54.81
2018-09-08T17:04:57.046Z,55.15
2018-09-08T17:07:25.742Z,55.15
2018-09-08T17:09:54.675Z,55.66
2018-09-08T17:12:23.531Z,56.32
2018-09-08T17:14:52.218Z,56.26
2018-09-08T17:17:21.062Z,57.47
2018-09-08T17:19:50.815Z,57.35
2018-09-08T17:22:19.470Z,57.66
2018-09-08T17:24:48.342Z,57.54
2018-09-08T17:27:17.098Z,58.90
2018-09-08T17:29:45.987Z,59.20
2018-09-08T17:32:14.740Z,58.77
2018-09-08T17:34:43.487Z,59.01
2018-09-08T17:37:12.243Z,59.42
2018-09-08T17:39:40.978Z,59.88
2018-09-08T17:42:10.088Z,59.58
2018-09-08T17:44:38.953Z,60.16
2018-09-08T17:47:07.869Z,61.56
2018-09-08T17:49:36.985Z,61.06
2018-09-08T17:52:06.917Z,61.81
2018-09-08T17:54:35.479Z,61.03
2018-09-08T17:57:04.171Z,61.97
2018-09-08T17:59:32.881Z,61.71
2018-09-08T18:02:01.688Z,62.10
2018-09-08T18:04:30.459Z,62.70
2018-09-08T18:06:59.294Z,62.87
2018-09-08T18:09:27.938Z,62.27
2018-09-08T18:11:56.758Z,62.33
2018-09-08T18:14:25.390Z,62.20
2018-09-08T18:16:54.034Z,63.02
2018-09-08T18:19:23.855Z,62.33
2018-09-08T18:21:52.591Z,62.04
2018-09-08T18:24:21.198Z,62.82
2018-09-08T18:26:50.014Z,64.09
2018-09-08T18:29:18.757Z,64.43
2018-09-08T18:31:47.449Z,64.82
2018-09-08T18:34:16.078Z,65.33
2018-09-08T18:36:44.766Z,65.75
2018-09-08T18:39:13.676Z,66.05
2018-09-08T18:41:42.403Z,66.11
2018-09-08T18:44:11.218Z,67.44
2018-09-08T18:46:39.934Z,67.38
2018-09-08T18:49:08.701Z,68.28
2018-09-08T18:51:39.273Z,68.57
2018-09-08T18:54:08.135Z,68.47
2018-09-08T18:56:36.921Z,68.79
2018-09-08T18:59:05.557Z,68.54
2018-09-08T19:01:34.436Z,69.12
2018-09-08T19:04:03.311Z,69.41
2018-09-08T19:06:32.015Z,70.26
2018-09-08T19:09:00.699Z,70.97
2018-09-08T19:11:29.420Z,71.90
2018-09-08T19:13:58.075Z,72.23
2018-09-08T19:16:26.866Z,72.36
2018-09-08T19:18:55.601Z,73.29
2018-09-08T19:21:24.442Z,74.03
2018-09-08T19:23:58.302Z,74.81
2018-09-08T19:26:27.077Z,75.67
2018-09-08T19:29:01.506Z,76.27
2018-09-08T19:31:31.195Z,76.73
2018-09-08T19:33:59.849Z,77.86
2018-09-08T19:36:28.616Z,78.47
2018-09-08T19:38:57.394Z,78.66
2018-09-08T19:41:26.530Z,78.60
2018-09-08T19:43:55.337Z,77.70
2018-09-08T19:46:29.335Z,78.75
2018-09-08T19:48:58.495Z,78.54
2018-09-08T19:51:27.413Z,79.34
2018-09-08T19:53:56.253Z,79.40
2018-09-08T19:56:30.142Z,79.57
2018-09-08T19:58:59.587Z,80.14
2018-09-08T20:01:28.960Z,79.34
2018-09-08T20:03:58.537Z,78.69
2018-09-08T20:06:27.707Z,78.91
2018-09-08T20:08:56.454Z,78.56
2018-09-08T20:11:25.179Z,78.05
2018-09-08T20:13:53.800Z,78.32
2018-09-08T20:16:22.800Z,78.50
2018-09-08T20:18:51.474Z,77.84
2018-09-08T20:21:20.746Z,77.80
2018-09-08T20:23:49.347Z,77.64
2018-09-08T20:26:18.114Z,77.31
2018-09-08T20:28:47.629Z,77.70
2018-09-08T20:31:16.227Z,77.49
2018-09-08T20:33:44.988Z,78.29
2018-09-08T20:36:13.695Z,78.85
2018-09-08T20:38:42.335Z,79.31
2018-09-08T20:41:11.014Z,79.56
2018-09-08T20:43:39.765Z,80.10
2018-09-08T20:46:08.534Z,80.49
2018-09-08T20:48:37.172Z,80.20
2018-09-08T20:51:05.803Z,79.69
2018-09-08T20:53:34.513Z,78.82
2018-09-08T20:56:03.320Z,79.17
2018-09-08T20:58:32.013Z,79.42
2018-09-08T21:01:00.708Z,79.91
2018-09-08T21:03:29.354Z,80.56
2018-09-08T21:05:58.049Z,80.92
2018-09-08T21:08:26.764Z,81.35
2018-09-08T21:10:55.501Z,80.91
2018-09-08T21:13:24.383Z,81.66
2018-09-08T21:15:53.014Z,81.71
2018-09-08T21:18:21.866Z,81.87
2018-09-08T21:20:50.465Z,82.14
2018-09-08T21:23:19.223Z,82.37
2018-09-08T21:25:47.878Z,82.39
2018-09-08T21:28:16.598Z,81.90
2018-09-08T21:30:45.859Z,80.97
2018-09-08T21:33:14.600Z,81.61
2018-09-08T21:35:44.562Z,83.67
2018-09-08T21:38:13.837Z,85.10
2018-09-08T21:40:43.132Z,85.16
2018-09-08T21:43:11.834Z,85.02
2018-09-08T21:45:40.714Z,84.82
2018-09-08T21:48:09.585Z,85.26
2018-09-08T21:50:38.229Z,86.28
2018-09-08T21:53:06.902Z,86.36
2018-09-08T21:55:35.685Z,86.62
2018-09-08T21:58:04.533Z,87.26
2018-09-08T22:00:33.449Z,87.58
2018-09-08T22:03:02.101Z,86.14
2018-09-08T22:05:31.086Z,84.82
2018-09-08T22:07:59.840Z,84.13
2018-09-08T22:10:28.525Z,84.26
2018-09-08T22:12:57.218Z,84.79
2018-09-08T22:15:25.830Z,85.84
2018-09-08T22:17:54.442Z,87.47
2018-09-08T22:20:23.226Z,86.00
2018-09-08T22:22:51.958Z,85.76
2018-09-08T22:25:20.577Z,84.45
2018-09-08T22:27:50.134Z,84.50
2018-09-08T22:30:18.842Z,85.03
2018-09-08T22:32:47.609Z,85.23
2018-09-08T22:35:16.913Z,85.28
2018-09-08T22:37:45.614Z,87.17
2018-09-08T22:40:15.109Z,88.29
2018-09-08T22:42:43.781Z,87.51
2018-09-08T22:45:12.547Z,87.20
2018-09-08T22:47:41.151Z,86.97
2018-09-08T22:50:09.833Z,86.86
2018-09-08T22:52:38.553Z,87.17
2018-09-08T22:55:07.389Z,85.78
2018-09-08T22:57:36.107Z,85.53
2018-09-08T23:00:06.173Z,85.22
2018-09-08T23:02:35.007Z,85.21
2018-09-08T23:05:03.765Z,85.13
2018-09-08T23:07:33.248Z,84.62
2018-09-08T23:10:02.608Z,84.06
2018-09-08T23:12:33.358Z,84.07
2018-09-08T23:15:02.625Z,83.99
2018-09-08T23:17:32.345Z,84.25
2018-09-08T23:20:01.278Z,84.22
2018-09-08T23:22:30.009Z,84.62
2018-09-08T23:24:59.529Z,84.42
2018-09-08T23:27:28.218Z,85.71
2018-09-08T23:29:57.461Z,85.35
2018-09-08T23:32:26.108Z,84.71
2018-09-08T23:34:54.770Z,84.13
2018-09-08T23:37:23.462Z,84.76
2018-09-08T23:39:52.070Z,84.50
2018-09-08T23:42:20.923Z,84.17
2018-09-08T23:44:49.614Z,84.77
2018-09-08T23:47:18.249Z,84.92
2018-09-08T23:49:46.950Z,84.37
2018-09-08T23:52:15.729Z,84.15
2018-09-08T23:54:44.529Z,83.59
2018-09-08T23:57:13.259Z,83.13
2018-09-08T23:59:41.901Z,82.40
